sensor_id;sensor_type;location;lat;lon;timestamp;temperature;humidity
69589;SHT31;56792;50.644;17.984;2024-01-07T00:01:18;-0.98;86.63
69589;SHT31;56792;50.644;17.984;2024-01-07T00:03:49;-0.97;86.80
69589;SHT31;56792;50.644;17.984;2024-01-07T00:06:20;-0.96;86.91
69589;SHT31;56792;50.644;17.984;2024-01-07T00:08:51;-0.97;87.10
69589;SHT31;56792;50.644;17.984;2024-01-07T00:11:22;-1.00;87.11
69589;SHT31;56792;50.644;17.984;2024-01-07T00:13:53;-1.02;87.16
69589;SHT31;56792;50.644;17.984;2024-01-07T00:16:25;-1.05;87.19
69589;SHT31;56792;50.644;17.984;2024-01-07T00:18:56;-1.04;87.28
69589;SHT31;56792;50.644;17.984;2024-01-07T00:21:27;-1.05;87.27
69589;SHT31;56792;50.644;17.984;2024-01-07T00:23:58;-1.08;87.16
69589;SHT31;56792;50.644;17.984;2024-01-07T00:26:29;-1.08;87.32
69589;SHT31;56792;50.644;17.984;2024-01-07T00:29:00;-1.10;87.25
69589;SHT31;56792;50.644;17.984;2024-01-07T00:31:31;-1.11;87.17
69589;SHT31;56792;50.644;17.984;2024-01-07T00:34:02;-1.12;87.21
69589;SHT31;56792;50.644;17.984;2024-01-07T00:36:33;-1.12;87.35
69589;SHT31;56792;50.644;17.984;2024-01-07T00:39:04;-1.10;87.37
69589;SHT31;56792;50.644;17.984;2024-01-07T00:41:35;-1.08;87.33
69589;SHT31;56792;50.644;17.984;2024-01-07T00:44:06;-1.07;87.23
69589;SHT31;56792;50.644;17.984;2024-01-07T00:46:37;-1.10;87.10
69589;SHT31;56792;50.644;17.984;2024-01-07T00:49:08;-1.12;87.01
69589;SHT31;56792;50.644;17.984;2024-01-07T00:51:39;-1.15;86.76
69589;SHT31;56792;50.644;17.984;2024-01-07T00:54:11;-1.16;86.87
69589;SHT31;56792;50.644;17.984;2024-01-07T00:56:42;-1.17;86.76
69589;SHT31;56792;50.644;17.984;2024-01-07T00:59:14;-1.18;86.87
69589;SHT31;56792;50.644;17.984;2024-01-07T01:01:45;-1.18;86.82
69589;SHT31;56792;50.644;17.984;2024-01-07T01:04:16;-1.18;86.90
69589;SHT31;56792;50.644;17.984;2024-01-07T01:06:47;-1.20;86.50
69589;SHT31;56792;50.644;17.984;2024-01-07T01:09:19;-1.25;86.01
69589;SHT31;56792;50.644;17.984;2024-01-07T01:11:50;-1.27;86.19
69589;SHT31;56792;50.644;17.984;2024-01-07T01:14:21;-1.27;86.19
69589;SHT31;56792;50.644;17.984;2024-01-07T01:16:52;-1.26;86.21
69589;SHT31;56792;50.644;17.984;2024-01-07T01:19:23;-1.27;86.17
69589;SHT31;56792;50.644;17.984;2024-01-07T01:21:54;-1.28;86.22
69589;SHT31;56792;50.644;17.984;2024-01-07T01:24:25;-1.27;86.21
69589;SHT31;56792;50.644;17.984;2024-01-07T01:26:56;-1.26;86.34
69589;SHT31;56792;50.644;17.984;2024-01-07T01:29:27;-1.26;86.48
69589;SHT31;56792;50.644;17.984;2024-01-07T01:31:58;-1.28;86.58
69589;SHT31;56792;50.644;17.984;2024-01-07T01:34:30;-1.29;86.64
69589;SHT31;56792;50.644;17.984;2024-01-07T01:37:01;-1.29;86.68
69589;SHT31;56792;50.644;17.984;2024-01-07T01:39:32;-1.29;86.65
69589;SHT31;56792;50.644;17.984;2024-01-07T01:42:04;-1.30;86.65
69589;SHT31;56792;50.644;17.984;2024-01-07T01:44:35;-1.31;86.69
69589;SHT31;56792;50.644;17.984;2024-01-07T01:47:09;-1.33;86.67
69589;SHT31;56792;50.644;17.984;2024-01-07T01:49:41;-1.36;86.66
69589;SHT31;56792;50.644;17.984;2024-01-07T01:52:13;-1.39;86.57
69589;SHT31;56792;50.644;17.984;2024-01-07T01:54:44;-1.44;86.31
69589;SHT31;56792;50.644;17.984;2024-01-07T01:57:17;-1.49;86.30
69589;SHT31;56792;50.644;17.984;2024-01-07T01:59:52;-1.52;86.44
69589;SHT31;56792;50.644;17.984;2024-01-07T02:02:29;-1.56;86.35
69589;SHT31;56792;50.644;17.984;2024-01-07T02:05:00;-1.59;86.34
69589;SHT31;56792;50.644;17.984;2024-01-07T02:07:32;-1.62;86.39
69589;SHT31;56792;50.644;17.984;2024-01-07T02:10:05;-1.65;86.38
69589;SHT31;56792;50.644;17.984;2024-01-07T02:12:38;-1.67;86.53
69589;SHT31;56792;50.644;17.984;2024-01-07T02:15:09;-1.68;86.52
69589;SHT31;56792;50.644;17.984;2024-01-07T02:17:40;-1.71;86.54
69589;SHT31;56792;50.644;17.984;2024-01-07T02:20:12;-1.70;86.77
69589;SHT31;56792;50.644;17.984;2024-01-07T02:22:43;-1.72;86.75
69589;SHT31;56792;50.644;17.984;2024-01-07T02:25:14;-1.74;86.49
69589;SHT31;56792;50.644;17.984;2024-01-07T02:27:45;-1.77;86.64
69589;SHT31;56792;50.644;17.984;2024-01-07T02:30:17;-1.77;86.68
69589;SHT31;56792;50.644;17.984;2024-01-07T02:32:48;-1.77;86.73
69589;SHT31;56792;50.644;17.984;2024-01-07T02:35:19;-1.77;86.75
69589;SHT31;56792;50.644;17.984;2024-01-07T02:37:51;-1.82;86.45
69589;SHT31;56792;50.644;17.984;2024-01-07T02:40:22;-1.81;86.66
69589;SHT31;56792;50.644;17.984;2024-01-07T02:42:53;-1.82;86.52
69589;SHT31;56792;50.644;17.984;2024-01-07T02:45:24;-1.84;86.50
69589;SHT31;56792;50.644;17.984;2024-01-07T02:47:56;-1.86;86.40
69589;SHT31;56792;50.644;17.984;2024-01-07T02:50:27;-1.90;85.99
69589;SHT31;56792;50.644;17.984;2024-01-07T02:52:59;-1.92;86.17
69589;SHT31;56792;50.644;17.984;2024-01-07T02:55:30;-1.92;86.28
69589;SHT31;56792;50.644;17.984;2024-01-07T02:58:01;-1.92;86.13
69589;SHT31;56792;50.644;17.984;2024-01-07T03:00:32;-1.94;85.93
69589;SHT31;56792;50.644;17.984;2024-01-07T03:03:03;-1.92;86.07
69589;SHT31;56792;50.644;17.984;2024-01-07T03:05:34;-1.91;86.13
69589;SHT31;56792;50.644;17.984;2024-01-07T03:08:06;-1.89;86.28
69589;SHT31;56792;50.644;17.984;2024-01-07T03:10:37;-1.92;85.84
69589;SHT31;56792;50.644;17.984;2024-01-07T03:13:08;-1.94;85.68
69589;SHT31;56792;50.644;17.984;2024-01-07T03:15:40;-1.94;85.81
69589;SHT31;56792;50.644;17.984;2024-01-07T03:18:11;-1.95;85.75
69589;SHT31;56792;50.644;17.984;2024-01-07T03:20:42;-1.93;85.78
69589;SHT31;56792;50.644;17.984;2024-01-07T03:23:13;-1.95;85.44
69589;SHT31;56792;50.644;17.984;2024-01-07T03:25:45;-1.96;85.59
69589;SHT31;56792;50.644;17.984;2024-01-07T03:28:16;-1.96;85.58
69589;SHT31;56792;50.644;17.984;2024-01-07T03:30:47;-1.95;85.68
69589;SHT31;56792;50.644;17.984;2024-01-07T03:33:18;-1.95;85.61
69589;SHT31;56792;50.644;17.984;2024-01-07T03:35:49;-1.93;85.71
69589;SHT31;56792;50.644;17.984;2024-01-07T03:38:20;-1.92;85.85
69589;SHT31;56792;50.644;17.984;2024-01-07T03:40:51;-1.92;85.90
69589;SHT31;56792;50.644;17.984;2024-01-07T03:43:22;-1.93;85.94
69589;SHT31;56792;50.644;17.984;2024-01-07T03:45:53;-1.92;86.13
69589;SHT31;56792;50.644;17.984;2024-01-07T03:48:25;-1.89;86.17
69589;SHT31;56792;50.644;17.984;2024-01-07T03:50:56;-1.92;85.97
69589;SHT31;56792;50.644;17.984;2024-01-07T03:53:27;-1.91;85.93
69589;SHT31;56792;50.644;17.984;2024-01-07T03:55:59;-1.95;85.70
69589;SHT31;56792;50.644;17.984;2024-01-07T03:58:30;-1.98;85.70
69589;SHT31;56792;50.644;17.984;2024-01-07T04:01:02;-1.98;85.81
69589;SHT31;56792;50.644;17.984;2024-01-07T04:03:33;-2.00;85.61
69589;SHT31;56792;50.644;17.984;2024-01-07T04:06:07;-2.06;85.56
69589;SHT31;56792;50.644;17.984;2024-01-07T04:08:38;-2.08;85.78
69589;SHT31;56792;50.644;17.984;2024-01-07T04:11:09;-2.10;85.85
69589;SHT31;56792;50.644;17.984;2024-01-07T04:13:40;-2.15;85.73
69589;SHT31;56792;50.644;17.984;2024-01-07T04:16:18;-2.19;85.83
69589;SHT31;56792;50.644;17.984;2024-01-07T04:18:49;-2.21;85.86
69589;SHT31;56792;50.644;17.984;2024-01-07T04:21:20;-2.24;85.97
69589;SHT31;56792;50.644;17.984;2024-01-07T04:23:51;-2.27;85.91
69589;SHT31;56792;50.644;17.984;2024-01-07T04:26:23;-2.33;85.63
69589;SHT31;56792;50.644;17.984;2024-01-07T04:28:54;-2.38;85.62
69589;SHT31;56792;50.644;17.984;2024-01-07T04:31:25;-2.41;85.72
69589;SHT31;56792;50.644;17.984;2024-01-07T04:33:56;-2.43;85.61
69589;SHT31;56792;50.644;17.984;2024-01-07T04:36:27;-2.46;85.56
69589;SHT31;56792;50.644;17.984;2024-01-07T04:38:58;-2.47;85.58
69589;SHT31;56792;50.644;17.984;2024-01-07T04:41:29;-2.48;85.52
69589;SHT31;56792;50.644;17.984;2024-01-07T04:44:00;-2.51;85.25
69589;SHT31;56792;50.644;17.984;2024-01-07T04:46:34;-2.53;85.21
69589;SHT31;56792;50.644;17.984;2024-01-07T04:49:07;-2.55;85.28
69589;SHT31;56792;50.644;17.984;2024-01-07T04:51:38;-2.56;85.50
69589;SHT31;56792;50.644;17.984;2024-01-07T04:54:10;-2.55;85.73
69589;SHT31;56792;50.644;17.984;2024-01-07T04:56:41;-2.53;85.83
69589;SHT31;56792;50.644;17.984;2024-01-07T04:59:12;-2.54;85.57
69589;SHT31;56792;50.644;17.984;2024-01-07T05:01:43;-2.55;85.56
69589;SHT31;56792;50.644;17.984;2024-01-07T05:04:14;-2.54;85.55
69589;SHT31;56792;50.644;17.984;2024-01-07T05:06:45;-2.52;85.54
69589;SHT31;56792;50.644;17.984;2024-01-07T05:09:17;-2.54;85.33
69589;SHT31;56792;50.644;17.984;2024-01-07T05:11:48;-2.56;85.24
69589;SHT31;56792;50.644;17.984;2024-01-07T05:14:19;-2.58;85.12
69589;SHT31;56792;50.644;17.984;2024-01-07T05:16:50;-2.58;85.22
69589;SHT31;56792;50.644;17.984;2024-01-07T05:19:22;-2.58;85.21
69589;SHT31;56792;50.644;17.984;2024-01-07T05:21:54;-2.58;85.01
69589;SHT31;56792;50.644;17.984;2024-01-07T05:24:25;-2.65;84.40
69589;SHT31;56792;50.644;17.984;2024-01-07T05:26:56;-2.68;84.62
69589;SHT31;56792;50.644;17.984;2024-01-07T05:29:27;-2.70;84.48
69589;SHT31;56792;50.644;17.984;2024-01-07T05:32:00;-2.70;84.60
69589;SHT31;56792;50.644;17.984;2024-01-07T05:34:31;-2.71;84.59
69589;SHT31;56792;50.644;17.984;2024-01-07T05:37:03;-2.71;84.86
69589;SHT31;56792;50.644;17.984;2024-01-07T05:39:34;-2.73;85.04
69589;SHT31;56792;50.644;17.984;2024-01-07T05:42:05;-2.71;85.43
69589;SHT31;56792;50.644;17.984;2024-01-07T05:44:36;-2.74;85.42
69589;SHT31;56792;50.644;17.984;2024-01-07T05:47:07;-2.79;85.47
69589;SHT31;56792;50.644;17.984;2024-01-07T05:49:38;-2.82;85.56
69589;SHT31;56792;50.644;17.984;2024-01-07T05:52:09;-2.85;85.70
69589;SHT31;56792;50.644;17.984;2024-01-07T05:54:41;-2.84;85.88
69589;SHT31;56792;50.644;17.984;2024-01-07T05:57:12;-2.84;85.84
69589;SHT31;56792;50.644;17.984;2024-01-07T05:59:44;-2.84;85.90
69589;SHT31;56792;50.644;17.984;2024-01-07T06:02:16;-2.85;85.98
69589;SHT31;56792;50.644;17.984;2024-01-07T06:04:49;-2.87;85.90
69589;SHT31;56792;50.644;17.984;2024-01-07T06:07:20;-2.89;85.88
69589;SHT31;56792;50.644;17.984;2024-01-07T06:09:51;-2.89;85.73
69589;SHT31;56792;50.644;17.984;2024-01-07T06:12:22;-2.92;85.37
69589;SHT31;56792;50.644;17.984;2024-01-07T06:14:53;-2.96;85.31
69589;SHT31;56792;50.644;17.984;2024-01-07T06:17:24;-2.95;85.61
69589;SHT31;56792;50.644;17.984;2024-01-07T06:19:55;-2.93;85.54
69589;SHT31;56792;50.644;17.984;2024-01-07T06:22:26;-2.91;85.63
69589;SHT31;56792;50.644;17.984;2024-01-07T06:24:57;-2.92;85.53
69589;SHT31;56792;50.644;17.984;2024-01-07T06:27:29;-2.93;85.66
69589;SHT31;56792;50.644;17.984;2024-01-07T06:30:00;-2.96;85.56
69589;SHT31;56792;50.644;17.984;2024-01-07T06:32:32;-2.98;85.33
69589;SHT31;56792;50.644;17.984;2024-01-07T06:35:03;-3.00;85.07
69589;SHT31;56792;50.644;17.984;2024-01-07T06:37:35;-3.03;84.71
69589;SHT31;56792;50.644;17.984;2024-01-07T06:40:07;-3.04;84.55
69589;SHT31;56792;50.644;17.984;2024-01-07T06:42:40;-3.06;84.25
69589;SHT31;56792;50.644;17.984;2024-01-07T06:45:11;-3.08;84.16
69589;SHT31;56792;50.644;17.984;2024-01-07T06:47:42;-3.10;84.08
69589;SHT31;56792;50.644;17.984;2024-01-07T06:50:13;-3.09;84.39
69589;SHT31;56792;50.644;17.984;2024-01-07T06:52:46;-3.09;84.61
69589;SHT31;56792;50.644;17.984;2024-01-07T06:55:17;-3.05;84.76
69589;SHT31;56792;50.644;17.984;2024-01-07T06:57:49;-3.04;84.57
69589;SHT31;56792;50.644;17.984;2024-01-07T07:00:21;-3.03;84.33
69589;SHT31;56792;50.644;17.984;2024-01-07T07:02:52;-3.04;84.09
69589;SHT31;56792;50.644;17.984;2024-01-07T07:05:23;-3.05;83.99
69589;SHT31;56792;50.644;17.984;2024-01-07T07:07:54;-3.07;83.82
69589;SHT31;56792;50.644;17.984;2024-01-07T07:10:25;-3.07;83.77
69589;SHT31;56792;50.644;17.984;2024-01-07T07:12:58;-3.09;83.38
69589;SHT31;56792;50.644;17.984;2024-01-07T07:15:29;-3.11;83.16
69589;SHT31;56792;50.644;17.984;2024-01-07T07:18:00;-3.08;83.45
69589;SHT31;56792;50.644;17.984;2024-01-07T07:20:31;-3.07;83.16
69589;SHT31;56792;50.644;17.984;2024-01-07T07:23:03;-3.07;82.82
69589;SHT31;56792;50.644;17.984;2024-01-07T07:25:34;-3.07;83.10
69589;SHT31;56792;50.644;17.984;2024-01-07T07:28:05;-3.08;82.80
69589;SHT31;56792;50.644;17.984;2024-01-07T07:30:36;-3.09;82.65
69589;SHT31;56792;50.644;17.984;2024-01-07T07:33:07;-3.09;82.65
69589;SHT31;56792;50.644;17.984;2024-01-07T07:35:40;-3.09;82.65
69589;SHT31;56792;50.644;17.984;2024-01-07T07:38:11;-3.08;82.90
69589;SHT31;56792;50.644;17.984;2024-01-07T07:40:42;-3.08;82.10
69589;SHT31;56792;50.644;17.984;2024-01-07T07:43:19;-3.06;82.20
69589;SHT31;56792;50.644;17.984;2024-01-07T07:45:51;-3.06;81.56
69589;SHT31;56792;50.644;17.984;2024-01-07T07:48:22;-3.04;81.50
69589;SHT31;56792;50.644;17.984;2024-01-07T07:50:54;-3.01;81.32
69589;SHT31;56792;50.644;17.984;2024-01-07T07:53:25;-2.99;81.34
69589;SHT31;56792;50.644;17.984;2024-01-07T07:55:56;-2.94;81.54
69589;SHT31;56792;50.644;17.984;2024-01-07T07:58:28;-2.91;81.33
69589;SHT31;56792;50.644;17.984;2024-01-07T08:01:00;-2.86;81.72
69589;SHT31;56792;50.644;17.984;2024-01-07T08:03:31;-2.79;81.87
69589;SHT31;56792;50.644;17.984;2024-01-07T08:06:03;-2.78;80.93
69589;SHT31;56792;50.644;17.984;2024-01-07T08:08:35;-2.79;81.00
69589;SHT31;56792;50.644;17.984;2024-01-07T08:11:06;-2.81;80.37
69589;SHT31;56792;50.644;17.984;2024-01-07T08:13:37;-2.80;80.91
69589;SHT31;56792;50.644;17.984;2024-01-07T08:16:08;-2.79;80.69
69589;SHT31;56792;50.644;17.984;2024-01-07T08:18:40;-2.81;80.28
69589;SHT31;56792;50.644;17.984;2024-01-07T08:21:11;-2.82;80.10
69589;SHT31;56792;50.644;17.984;2024-01-07T08:23:42;-2.81;80.10
69589;SHT31;56792;50.644;17.984;2024-01-07T08:26:14;-2.80;80.03
69589;SHT31;56792;50.644;17.984;2024-01-07T08:28:49;-2.76;80.09
69589;SHT31;56792;50.644;17.984;2024-01-07T08:31:20;-2.75;79.59
69589;SHT31;56792;50.644;17.984;2024-01-07T08:33:51;-2.76;79.50
69589;SHT31;56792;50.644;17.984;2024-01-07T08:36:22;-2.79;79.08
69589;SHT31;56792;50.644;17.984;2024-01-07T08:38:53;-2.78;79.33
69589;SHT31;56792;50.644;17.984;2024-01-07T08:41:24;-2.81;78.80
69589;SHT31;56792;50.644;17.984;2024-01-07T08:43:55;-2.81;79.30
69589;SHT31;56792;50.644;17.984;2024-01-07T08:46:27;-2.83;79.21
69589;SHT31;56792;50.644;17.984;2024-01-07T08:48:58;-2.83;79.32
69589;SHT31;56792;50.644;17.984;2024-01-07T08:51:31;-2.83;79.19
69589;SHT31;56792;50.644;17.984;2024-01-07T08:54:02;-2.85;78.81
69589;SHT31;56792;50.644;17.984;2024-01-07T08:56:33;-2.89;78.36
69589;SHT31;56792;50.644;17.984;2024-01-07T08:59:06;-2.93;78.16
69589;SHT31;56792;50.644;17.984;2024-01-07T09:01:37;-2.96;78.32
69589;SHT31;56792;50.644;17.984;2024-01-07T09:04:08;-2.93;79.02
69589;SHT31;56792;50.644;17.984;2024-01-07T09:06:39;-2.84;79.10
69589;SHT31;56792;50.644;17.984;2024-01-07T09:09:10;-2.80;79.31
69589;SHT31;56792;50.644;17.984;2024-01-07T09:11:41;-2.80;78.57
69589;SHT31;56792;50.644;17.984;2024-01-07T09:14:12;-2.81;78.70
69589;SHT31;56792;50.644;17.984;2024-01-07T09:16:43;-2.85;78.01
69589;SHT31;56792;50.644;17.984;2024-01-07T09:19:14;-2.83;78.77
69589;SHT31;56792;50.644;17.984;2024-01-07T09:21:46;-2.80;78.58
69589;SHT31;56792;50.644;17.984;2024-01-07T09:24:17;-2.79;78.29
69589;SHT31;56792;50.644;17.984;2024-01-07T09:26:48;-2.81;78.36
69589;SHT31;56792;50.644;17.984;2024-01-07T09:29:19;-2.86;77.91
69589;SHT31;56792;50.644;17.984;2024-01-07T09:31:50;-2.91;78.15
69589;SHT31;56792;50.644;17.984;2024-01-07T09:34:21;-2.90;78.35
69589;SHT31;56792;50.644;17.984;2024-01-07T09:36:52;-2.84;78.66
69589;SHT31;56792;50.644;17.984;2024-01-07T09:39:23;-2.80;78.26
69589;SHT31;56792;50.644;17.984;2024-01-07T09:41:55;-2.79;77.94
69589;SHT31;56792;50.644;17.984;2024-01-07T09:44:26;-2.79;78.03
69589;SHT31;56792;50.644;17.984;2024-01-07T09:46:58;-2.74;78.02
69589;SHT31;56792;50.644;17.984;2024-01-07T09:49:31;-2.72;78.03
69589;SHT31;56792;50.644;17.984;2024-01-07T09:52:02;-2.72;77.76
69589;SHT31;56792;50.644;17.984;2024-01-07T09:54:35;-2.74;77.57
69589;SHT31;56792;50.644;17.984;2024-01-07T09:57:08;-2.71;77.78
69589;SHT31;56792;50.644;17.984;2024-01-07T09:59:39;-2.71;77.36
69589;SHT31;56792;50.644;17.984;2024-01-07T10:02:10;-2.71;77.16
69589;SHT31;56792;50.644;17.984;2024-01-07T10:04:42;-2.79;76.76
69589;SHT31;56792;50.644;17.984;2024-01-07T10:07:15;-2.85;76.85
69589;SHT31;56792;50.644;17.984;2024-01-07T10:09:46;-2.80;77.55
69589;SHT31;56792;50.644;17.984;2024-01-07T10:12:17;-2.78;77.29
69589;SHT31;56792;50.644;17.984;2024-01-07T10:14:52;-2.78;76.96
69589;SHT31;56792;50.644;17.984;2024-01-07T10:17:23;-2.81;76.89
69589;SHT31;56792;50.644;17.984;2024-01-07T10:19:54;-2.81;77.41
69589;SHT31;56792;50.644;17.984;2024-01-07T10:22:25;-2.77;77.41
69589;SHT31;56792;50.644;17.984;2024-01-07T10:24:59;-2.76;77.16
69589;SHT31;56792;50.644;17.984;2024-01-07T10:27:33;-2.79;77.39
69589;SHT31;56792;50.644;17.984;2024-01-07T10:30:05;-2.73;77.72
69589;SHT31;56792;50.644;17.984;2024-01-07T10:32:38;-2.75;77.29
69589;SHT31;56792;50.644;17.984;2024-01-07T10:35:13;-2.73;77.58
69589;SHT31;56792;50.644;17.984;2024-01-07T10:37:49;-2.71;77.52
69589;SHT31;56792;50.644;17.984;2024-01-07T10:40:20;-2.73;77.21
69589;SHT31;56792;50.644;17.984;2024-01-07T10:42:53;-2.72;77.38
69589;SHT31;56792;50.644;17.984;2024-01-07T10:45:25;-2.71;77.48
69589;SHT31;56792;50.644;17.984;2024-01-07T10:47:59;-2.68;77.44
69589;SHT31;56792;50.644;17.984;2024-01-07T10:50:35;-2.66;77.14
69589;SHT31;56792;50.644;17.984;2024-01-07T10:53:09;-2.62;77.48
69589;SHT31;56792;50.644;17.984;2024-01-07T10:55:50;-2.55;77.55
69589;SHT31;56792;50.644;17.984;2024-01-07T10:58:27;-2.45;77.48
69589;SHT31;56792;50.644;17.984;2024-01-07T11:01:00;-2.43;76.94
69589;SHT31;56792;50.644;17.984;2024-01-07T11:03:36;-2.45;76.74
69589;SHT31;56792;50.644;17.984;2024-01-07T11:06:16;-2.47;76.54
69589;SHT31;56792;50.644;17.984;2024-01-07T11:08:58;-2.44;77.07
69589;SHT31;56792;50.644;17.984;2024-01-07T11:11:35;-2.40;76.81
69589;SHT31;56792;50.644;17.984;2024-01-07T11:17:07;-2.30;76.77
69589;SHT31;56792;50.644;17.984;2024-01-07T11:19:39;-2.32;76.72
69589;SHT31;56792;50.644;17.984;2024-01-07T11:22:23;-2.32;76.64
69589;SHT31;56792;50.644;17.984;2024-01-07T11:24:55;-2.36;76.32
69589;SHT31;56792;50.644;17.984;2024-01-07T11:27:29;-2.32;76.72
69589;SHT31;56792;50.644;17.984;2024-01-07T11:30:03;-2.32;75.88
69589;SHT31;56792;50.644;17.984;2024-01-07T11:32:46;-2.36;76.10
69589;SHT31;56792;50.644;17.984;2024-01-07T11:35:27;-2.43;75.79
69589;SHT31;56792;50.644;17.984;2024-01-07T11:38:28;-2.43;76.11
69589;SHT31;56792;50.644;17.984;2024-01-07T11:41:01;-2.41;76.46
69589;SHT31;56792;50.644;17.984;2024-01-07T11:43:35;-2.36;76.59
69589;SHT31;56792;50.644;17.984;2024-01-07T11:46:06;-2.41;75.93
69589;SHT31;56792;50.644;17.984;2024-01-07T11:48:37;-2.49;75.91
69589;SHT31;56792;50.644;17.984;2024-01-07T11:51:11;-2.54;75.91
69589;SHT31;56792;50.644;17.984;2024-01-07T11:53:44;-2.56;75.45
69589;SHT31;56792;50.644;17.984;2024-01-07T11:56:17;-2.53;76.15
69589;SHT31;56792;50.644;17.984;2024-01-07T11:58:48;-2.49;76.15
69589;SHT31;56792;50.644;17.984;2024-01-07T12:01:19;-2.47;76.15
69589;SHT31;56792;50.644;17.984;2024-01-07T12:03:52;-2.41;76.58
69589;SHT31;56792;50.644;17.984;2024-01-07T12:06:23;-2.30;76.83
69589;SHT31;56792;50.644;17.984;2024-01-07T12:08:54;-2.26;76.37
69589;SHT31;56792;50.644;17.984;2024-01-07T12:11:25;-2.32;75.92
69589;SHT31;56792;50.644;17.984;2024-01-07T12:13:56;-2.38;75.84
69589;SHT31;56792;50.644;17.984;2024-01-07T12:16:28;-2.40;76.13
69589;SHT31;56792;50.644;17.984;2024-01-07T12:19:00;-2.42;76.10
69589;SHT31;56792;50.644;17.984;2024-01-07T12:21:31;-2.41;76.49
69589;SHT31;56792;50.644;17.984;2024-01-07T12:24:03;-2.42;76.11
69589;SHT31;56792;50.644;17.984;2024-01-07T12:26:34;-2.48;75.81
69589;SHT31;56792;50.644;17.984;2024-01-07T12:29:06;-2.56;75.66
69589;SHT31;56792;50.644;17.984;2024-01-07T12:31:39;-2.55;76.55
69589;SHT31;56792;50.644;17.984;2024-01-07T12:34:13;-2.47;76.95
69589;SHT31;56792;50.644;17.984;2024-01-07T12:36:45;-2.41;76.61
69589;SHT31;56792;50.644;17.984;2024-01-07T12:39:17;-2.39;76.63
69589;SHT31;56792;50.644;17.984;2024-01-07T12:41:48;-2.37;76.41
69589;SHT31;56792;50.644;17.984;2024-01-07T12:44:19;-2.43;76.01
69589;SHT31;56792;50.644;17.984;2024-01-07T12:46:54;-2.51;76.14
69589;SHT31;56792;50.644;17.984;2024-01-07T12:49:25;-2.53;76.49
69589;SHT31;56792;50.644;17.984;2024-01-07T12:51:56;-2.54;76.17
69589;SHT31;56792;50.644;17.984;2024-01-07T12:54:28;-2.54;76.78
69589;SHT31;56792;50.644;17.984;2024-01-07T12:56:59;-2.58;76.28
69589;SHT31;56792;50.644;17.984;2024-01-07T12:59:30;-2.66;76.07
69589;SHT31;56792;50.644;17.984;2024-01-07T13:02:01;-2.67;75.99
69589;SHT31;56792;50.644;17.984;2024-01-07T13:04:33;-2.76;75.75
69589;SHT31;56792;50.644;17.984;2024-01-07T13:07:04;-2.83;75.91
69589;SHT31;56792;50.644;17.984;2024-01-07T13:09:35;-2.86;76.38
69589;SHT31;56792;50.644;17.984;2024-01-07T13:12:06;-2.89;76.27
69589;SHT31;56792;50.644;17.984;2024-01-07T13:14:37;-2.91;76.70
69589;SHT31;56792;50.644;17.984;2024-01-07T13:17:09;-2.96;76.49
69589;SHT31;56792;50.644;17.984;2024-01-07T13:19:40;-3.02;76.20
69589;SHT31;56792;50.644;17.984;2024-01-07T13:22:11;-3.09;76.39
69589;SHT31;56792;50.644;17.984;2024-01-07T13:24:42;-3.15;76.67
69589;SHT31;56792;50.644;17.984;2024-01-07T13:27:13;-3.16;76.99
69589;SHT31;56792;50.644;17.984;2024-01-07T13:29:45;-3.17;77.17
69589;SHT31;56792;50.644;17.984;2024-01-07T13:32:16;-3.17;77.27
69589;SHT31;56792;50.644;17.984;2024-01-07T13:34:48;-3.16;77.38
69589;SHT31;56792;50.644;17.984;2024-01-07T13:37:19;-3.21;77.55
69589;SHT31;56792;50.644;17.984;2024-01-07T13:39:50;-3.30;77.66
69589;SHT31;56792;50.644;17.984;2024-01-07T13:42:21;-3.29;78.14
69589;SHT31;56792;50.644;17.984;2024-01-07T13:44:52;-3.27;78.19
69589;SHT31;56792;50.644;17.984;2024-01-07T13:47:24;-3.27;78.41
69589;SHT31;56792;50.644;17.984;2024-01-07T13:49:55;-3.28;78.33
69589;SHT31;56792;50.644;17.984;2024-01-07T13:52:26;-3.39;77.95
69589;SHT31;56792;50.644;17.984;2024-01-07T13:54:58;-3.41;78.46
69589;SHT31;56792;50.644;17.984;2024-01-07T13:57:29;-3.45;78.33
69589;SHT31;56792;50.644;17.984;2024-01-07T14:00:01;-3.48;78.54
69589;SHT31;56792;50.644;17.984;2024-01-07T14:02:36;-3.49;78.46
69589;SHT31;56792;50.644;17.984;2024-01-07T14:05:10;-3.54;78.41
69589;SHT31;56792;50.644;17.984;2024-01-07T14:07:41;-3.58;78.66
69589;SHT31;56792;50.644;17.984;2024-01-07T14:10:12;-3.62;78.36
69589;SHT31;56792;50.644;17.984;2024-01-07T14:12:45;-3.63;78.60
69589;SHT31;56792;50.644;17.984;2024-01-07T14:15:16;-3.63;78.66
69589;SHT31;56792;50.644;17.984;2024-01-07T14:17:47;-3.66;78.51
69589;SHT31;56792;50.644;17.984;2024-01-07T14:20:18;-3.72;78.51
69589;SHT31;56792;50.644;17.984;2024-01-07T14:22:49;-3.73;78.79
69589;SHT31;56792;50.644;17.984;2024-01-07T14:25:21;-3.75;78.92
69589;SHT31;56792;50.644;17.984;2024-01-07T14:27:52;-3.79;78.78
69589;SHT31;56792;50.644;17.984;2024-01-07T14:30:23;-3.79;79.25
69589;SHT31;56792;50.644;17.984;2024-01-07T14:32:54;-3.82;79.62
69589;SHT31;56792;50.644;17.984;2024-01-07T14:35:25;-3.87;79.72
69589;SHT31;56792;50.644;17.984;2024-01-07T14:37:57;-3.92;80.16
69589;SHT31;56792;50.644;17.984;2024-01-07T14:40:30;-3.98;80.37
69589;SHT31;56792;50.644;17.984;2024-01-07T14:43:01;-4.02;80.82
69589;SHT31;56792;50.644;17.984;2024-01-07T14:45:33;-4.05;81.14
69589;SHT31;56792;50.644;17.984;2024-01-07T14:48:04;-4.13;81.30
69589;SHT31;56792;50.644;17.984;2024-01-07T14:50:36;-4.19;81.65
69589;SHT31;56792;50.644;17.984;2024-01-07T14:53:07;-4.22;81.76
69589;SHT31;56792;50.644;17.984;2024-01-07T14:55:38;-4.24;81.96
69589;SHT31;56792;50.644;17.984;2024-01-07T14:58:10;-4.28;82.00
69589;SHT31;56792;50.644;17.984;2024-01-07T15:00:47;-4.33;82.28
69589;SHT31;56792;50.644;17.984;2024-01-07T15:03:19;-4.34;82.33
69589;SHT31;56792;50.644;17.984;2024-01-07T15:05:50;-4.37;82.57
69589;SHT31;56792;50.644;17.984;2024-01-07T15:08:21;-4.39;82.72
69589;SHT31;56792;50.644;17.984;2024-01-07T15:10:52;-4.41;82.67
69589;SHT31;56792;50.644;17.984;2024-01-07T15:13:24;-4.41;82.79
69589;SHT31;56792;50.644;17.984;2024-01-07T15:15:56;-4.43;82.59
69589;SHT31;56792;50.644;17.984;2024-01-07T15:18:27;-4.46;82.62
69589;SHT31;56792;50.644;17.984;2024-01-07T15:20:58;-4.54;82.29
69589;SHT31;56792;50.644;17.984;2024-01-07T15:23:30;-4.59;82.22
69589;SHT31;56792;50.644;17.984;2024-01-07T15:26:01;-4.59;82.37
69589;SHT31;56792;50.644;17.984;2024-01-07T15:28:32;-4.59;82.36
69589;SHT31;56792;50.644;17.984;2024-01-07T15:31:03;-4.57;82.43
69589;SHT31;56792;50.644;17.984;2024-01-07T15:33:37;-4.57;82.34
69589;SHT31;56792;50.644;17.984;2024-01-07T15:36:08;-4.61;81.94
69589;SHT31;56792;50.644;17.984;2024-01-07T15:38:40;-4.63;81.88
69589;SHT31;56792;50.644;17.984;2024-01-07T15:41:11;-4.64;81.86
69589;SHT31;56792;50.644;17.984;2024-01-07T15:43:42;-4.67;81.47
69589;SHT31;56792;50.644;17.984;2024-01-07T15:46:13;-4.72;81.48